Have a Safe July 4th! 

Flight Track Log - Related Links

Times and Time Zones

All times are in EDT time to prevent confusion due to time zone crossing. See the N865JM flight status page for this flight to view local times or setup timezone preferences in your user account.

Time Position Orientation Groundspeed Altitude Reporting Facility
EDT Latitude Longitude Course Direction KTS MPH feet Rate Location/Type
Wed 07:14:43 AM 41.0333 -73.7167 252° West 195 224 2,300  Level New York TRACON
Wed 07:15:43 AM 41.0167 -73.7833 252° West 211 243 4,000 2,000 Climbing New York TRACON
Wed 07:16:43 AM 40.9833 -73.8667 242° Southwest 258 297 6,300 1,700 Climbing New York TRACON
Wed 07:17:43 AM 40.9500 -73.9333 237° Southwest 263 303 7,400 1,350 Climbing New York TRACON
Wed 07:18:43 AM 40.9000 -74.0167 232° Southwest 260 299 9,000 2,000 Climbing New York TRACON
Wed 07:19:43 AM 40.8667 -74.1000 242° Southwest 276 318 11,400 2,250 Climbing New York TRACON
Wed 07:20:43 AM 40.8667 -74.2167 270° West 296 341 13,500 2,000 Climbing New York TRACON
Wed 07:21:49 AM 40.8667 -74.3333 270° West 328 377 15,600 1,024 Climbing New York TRACON
Wed 07:24:14 AM 40.8400 -74.6331 263° West 363 418 17,100 757 Climbing New York Center
Wed 07:25:15 AM 40.8292 -74.7750 264° West 363 418 18,200 1,400 Climbing New York Center
Wed 07:26:14 AM 40.8189 -74.8950 264° West 368 423 19,900 1,800 Climbing New York Center
Wed 07:27:15 AM 40.8097 -75.0289 265° West 368 423 21,800 1,550 Climbing New York Center
Wed 07:28:14 AM 40.7986 -75.1681 264° West 368 423 23,000 600 Climbing New York Center
Wed 07:29:15 AM 40.7767 -75.3008 258° West 368 423 23,000  Level New York Center
Wed 07:30:14 AM 40.7444 -75.4331 252° West 373 429 23,000 400 Level New York Center
Wed 07:31:15 AM 40.7019 -75.5614 246° West 379 436 23,800 1,438 Climbing New York Center
Wed 07:32:15 AM 40.6556 -75.6786 242° Southwest 379 436 25,900 1,966 Climbing New York Center
Wed 07:33:14 AM 40.6108 -75.8011 244° Southwest 379 436 27,700 1,050 Climbing New York Center
Wed 07:34:15 AM 40.5597 -75.9231 241° Southwest 379 436 28,000 149 Climbing New York Center
Wed 07:35:15 AM 40.5100 -76.0558 244° Southwest 390 449 28,000  Level New York Center
Wed 07:36:15 AM 40.4603 -76.1883 244° Southwest 402 463 28,000  Level New York Center
Wed 07:37:14 AM 40.4083 -76.3178 242° Southwest 402 463 28,000  Level New York Center
Wed 07:38:14 AM 40.3658 -76.4672 250° West 402 463 28,000  Level New York Center
Wed 07:39:15 AM 40.3297 -76.6086 252° West 407 468 28,000  Level New York Center
Wed 07:40:15 AM 40.2936 -76.7469 251° West 407 468 28,000  Level New York Center
Wed 07:41:15 AM 40.2572 -76.8853 251° West 407 468 28,000  Level New York Center
Wed 07:42:15 AM 40.2208 -77.0261 251° West 407 468 28,000  Level New York Center
Wed 07:43:15 AM 40.1822 -77.1642 250° West 407 468 28,000 -100 Level New York Center
Wed 07:44:15 AM 40.1525 -77.2864 252° West 402 463 27,800 -850 Descending New York Center
Wed 07:45:15 AM 40.1158 -77.4214 250° West 397 457 26,300 -1,464 Descending New York Center
Wed 07:47:44 AM 40.0219 -77.7647 250° West 387 445 22,700 -1,229 Descending Cleveland Center
Wed 07:48:45 AM 39.9867 -77.8953 251° West 385 443 22,000 -341 Descending Cleveland Center
Wed 07:49:47 AM 39.9733 -78.0314 263° West 387 445 22,000 -581 Level Cleveland Center
Wed 07:50:49 AM 39.9761 -78.1683 272° West 385 443 20,800 -1,171 Descending Cleveland Center
Wed 07:51:50 AM 39.9797 -78.2983 272° West 374 430 19,600 -1,268 Descending Cleveland Center
Wed 07:52:52 AM 39.9831 -78.4261 272° West 363 418 18,200 -1,452 Descending Cleveland Center
Wed 07:53:54 AM 39.9864 -78.5753 272° West 352 405 16,600 -1,515 Descending Cleveland Center
Wed 07:54:31 AM 39.9864 -78.6581 270° West 343 395 15,700 -1,258 Descending Cleveland Center
Wed 07:54:56 AM 39.9889 -78.6992 275° West 346 398 15,300 -1,286 Descending Cleveland Center
Wed 07:55:13 AM 39.9883 -78.7400 269° West 342 394 14,800 -1,377 Descending Cleveland Center
Wed 07:55:57 AM 39.9917 -78.8228 273° West 345 397 13,900 -1,377 Descending Cleveland Center
Wed 07:56:14 AM 39.9908 -78.8631 268° West 345 397 13,400 -1,452 Descending Cleveland Center
Wed 07:56:59 AM 39.9942 -78.9433 273° West 339 390 12,400 -1,500 Descending Cleveland Center
Wed 07:57:14 AM 39.9939 -78.9806 269° West 328 377 11,900 -1,548 Descending Cleveland Center
Wed 07:58:01 AM 39.9978 -79.0669 273° West 335 386 10,800 -1,574 Descending Cleveland Center
Wed 07:58:15 AM 39.9964 -79.1036 267° West 317 365 10,300 -1,082 Descending Cleveland Center
Wed 07:59:02 AM 40.0003 -79.1717 274° West 292 336 9,700 -885 Descending Cleveland Center
Wed 07:59:16 AM 39.9986 -79.2022 266° West 257 296 9,400 -1,143 Descending Cleveland Center
Wed 08:00:05 AM 40.0019 -79.2653 274° West 261 300 8,500 -1,400 Descending Cleveland Center
Wed 08:00:16 AM 39.9992 -79.2950 263° West 254 292 8,000 -1,355 Descending Cleveland Center
Wed 08:01:07 AM 40.0031 -79.3611 274° West 264 304 7,100 -1,377 Descending Cleveland Center
Wed 08:01:17 AM 40.0017 -79.3881 266° West 261 300 6,600 -930 Descending Cleveland Center
Wed 08:02:18 AM 40.0428 -79.4706 303° West 244 281 6,000 -584 Descending Cleveland Center
Wed 08:03:10 AM 40.0797 -79.5283 310° West 246 283 5,500 -579 Descending Cleveland Center
Wed 08:04:12 AM 40.1425 -79.5644 336° Northwest 249 287 4,900 -290 Descending Cleveland Center
Wed 08:05:14 AM 40.2056 -79.6017 336° Northwest 250 288 4,900  Level Cleveland Center
Wed 08:06:16 AM 40.2636 -79.6414 332° Northwest 241 277 4,900  Level Cleveland Center
Wed 08:07:18 AM 40.3197 -79.6778 334° Northwest 231 266 4,900 -871 Level Cleveland Center
Wed 08:08:20 AM 40.3436 -79.7536 292° West 191 220 3,100 -1,024 Descending Cleveland Center
Wed 08:09:21 AM 40.3536 -79.8144 282° West 174 200 2,800 -537 Descending Cleveland Center
Wed 08:10:23 AM 40.3547 -79.8656 272° West 155 178 2,000 -677 Descending Cleveland Center
Wed 08:11:25 AM 40.3558 -79.9097 272° West 136 157 1,400 -387 Descending Cleveland Center
Wed 08:12:27 AM 40.3561 -79.9511 271° West 132 152 1,200 -194 Descending Cleveland Center

Login

Don't have an account? Register now (free) for customized features, flight alerts, and more!